sensor_id;sensor_type;location;lat;lon;timestamp;P1;durP1;ratioP1;P2;durP2;ratioP2
20721;SDS011;10522;52.198;9.890;2023-03-01T00:00:38;11.20;;;7.03;;
20721;SDS011;10522;52.198;9.890;2023-03-01T00:03:04;13.40;;;7.57;;
20721;SDS011;10522;52.198;9.890;2023-03-01T00:05:29;14.07;;;7.53;;
20721;SDS011;10522;52.198;9.890;2023-03-01T00:07:55;14.57;;;7.10;;
20721;SDS011;10522;52.198;9.890;2023-03-01T00:10:20;13.37;;;6.93;;
20721;SDS011;10522;52.198;9.890;2023-03-01T00:12:46;12.37;;;6.80;;
20721;SDS011;10522;52.198;9.890;2023-03-01T00:15:12;13.00;;;7.27;;
20721;SDS011;10522;52.198;9.890;2023-03-01T00:17:37;16.17;;;7.70;;
20721;SDS011;10522;52.198;9.890;2023-03-01T00:20:03;14.07;;;7.60;;
20721;SDS011;10522;52.198;9.890;2023-03-01T00:22:33;15.43;;;8.17;;
20721;SDS011;10522;52.198;9.890;2023-03-01T00:24:59;13.40;;;7.47;;
20721;SDS011;10522;52.198;9.890;2023-03-01T00:27:24;16.30;;;8.17;;
20721;SDS011;10522;52.198;9.890;2023-03-01T00:29:50;16.03;;;8.63;;
20721;SDS011;10522;52.198;9.890;2023-03-01T00:32:17;11.30;;;7.27;;
20721;SDS011;10522;52.198;9.890;2023-03-01T00:34:42;12.13;;;8.13;;
20721;SDS011;10522;52.198;9.890;2023-03-01T00:37:14;16.37;;;8.53;;
20721;SDS011;10522;52.198;9.890;2023-03-01T00:39:39;15.07;;;8.20;;
20721;SDS011;10522;52.198;9.890;2023-03-01T00:42:05;14.03;;;8.17;;
20721;SDS011;10522;52.198;9.890;2023-03-01T00:44:30;11.93;;;7.63;;
20721;SDS011;10522;52.198;9.890;2023-03-01T00:46:56;14.40;;;7.80;;
20721;SDS011;10522;52.198;9.890;2023-03-01T00:49:22;16.17;;;8.50;;
20721;SDS011;10522;52.198;9.890;2023-03-01T00:51:49;12.13;;;7.67;;
20721;SDS011;10522;52.198;9.890;2023-03-01T00:54:14;13.90;;;8.50;;
20721;SDS011;10522;52.198;9.890;2023-03-01T00:56:40;14.50;;;8.33;;
20721;SDS011;10522;52.198;9.890;2023-03-01T00:59:05;16.17;;;8.67;;
20721;SDS011;10522;52.198;9.890;2023-03-01T01:01:31;15.27;;;9.00;;
20721;SDS011;10522;52.198;9.890;2023-03-01T01:06:32;12.23;;;8.00;;
20721;SDS011;10522;52.198;9.890;2023-03-01T01:08:59;13.93;;;7.47;;
20721;SDS011;10522;52.198;9.890;2023-03-01T01:11:27;13.33;;;7.87;;
20721;SDS011;10522;52.198;9.890;2023-03-01T01:13:53;11.67;;;7.67;;
20721;SDS011;10522;52.198;9.890;2023-03-01T01:16:21;12.60;;;7.87;;
20721;SDS011;10522;52.198;9.890;2023-03-01T01:29:06;13.67;;;8.10;;
20721;SDS011;10522;52.198;9.890;2023-03-01T01:31:33;15.40;;;8.63;;
20721;SDS011;10522;52.198;9.890;2023-03-01T01:34:00;14.37;;;7.83;;
20721;SDS011;10522;52.198;9.890;2023-03-01T01:36:27;13.57;;;8.37;;
20721;SDS011;10522;52.198;9.890;2023-03-01T01:38:53;13.20;;;8.03;;
20721;SDS011;10522;52.198;9.890;2023-03-01T01:41:18;11.17;;;6.90;;
20721;SDS011;10522;52.198;9.890;2023-03-01T01:43:46;13.07;;;8.20;;
20721;SDS011;10522;52.198;9.890;2023-03-01T01:46:32;12.50;;;8.53;;
20721;SDS011;10522;52.198;9.890;2023-03-01T01:49:01;11.77;;;7.77;;
20721;SDS011;10522;52.198;9.890;2023-03-01T01:51:39;15.30;;;8.10;;
20721;SDS011;10522;52.198;9.890;2023-03-01T01:54:19;12.93;;;7.07;;
20721;SDS011;10522;52.198;9.890;2023-03-01T01:56:52;10.53;;;6.47;;
20721;SDS011;10522;52.198;9.890;2023-03-01T01:59:22;9.93;;;6.53;;
20721;SDS011;10522;52.198;9.890;2023-03-01T02:01:50;8.87;;;5.90;;
20721;SDS011;10522;52.198;9.890;2023-03-01T02:04:17;12.37;;;6.50;;
20721;SDS011;10522;52.198;9.890;2023-03-01T02:06:48;10.57;;;6.17;;
20721;SDS011;10522;52.198;9.890;2023-03-01T02:09:34;13.27;;;6.77;;
20721;SDS011;10522;52.198;9.890;2023-03-01T02:12:00;11.83;;;6.50;;
20721;SDS011;10522;52.198;9.890;2023-03-01T02:14:27;16.80;;;7.57;;
20721;SDS011;10522;52.198;9.890;2023-03-01T02:16:53;9.53;;;5.87;;
20721;SDS011;10522;52.198;9.890;2023-03-01T02:22:32;11.93;;;6.70;;
20721;SDS011;10522;52.198;9.890;2023-03-01T02:30:18;10.53;;;6.00;;
20721;SDS011;10522;52.198;9.890;2023-03-01T02:32:45;12.43;;;6.57;;
20721;SDS011;10522;52.198;9.890;2023-03-01T02:35:13;11.37;;;6.60;;
20721;SDS011;10522;52.198;9.890;2023-03-01T02:37:41;11.50;;;6.37;;
20721;SDS011;10522;52.198;9.890;2023-03-01T02:40:09;12.73;;;6.93;;
20721;SDS011;10522;52.198;9.890;2023-03-01T02:42:57;13.60;;;7.17;;
20721;SDS011;10522;52.198;9.890;2023-03-01T02:45:24;11.20;;;6.93;;
20721;SDS011;10522;52.198;9.890;2023-03-01T02:47:55;12.83;;;8.07;;
20721;SDS011;10522;52.198;9.890;2023-03-01T02:53:16;17.43;;;7.73;;
20721;SDS011;10522;52.198;9.890;2023-03-01T02:55:57;11.80;;;7.73;;
20721;SDS011;10522;52.198;9.890;2023-03-01T02:58:24;13.80;;;7.87;;
20721;SDS011;10522;52.198;9.890;2023-03-01T03:00:49;15.00;;;8.80;;
20721;SDS011;10522;52.198;9.890;2023-03-01T03:03:19;14.00;;;8.63;;
20721;SDS011;10522;52.198;9.890;2023-03-01T03:05:46;15.27;;;8.30;;
20721;SDS011;10522;52.198;9.890;2023-03-01T03:08:13;13.33;;;8.10;;
20721;SDS011;10522;52.198;9.890;2023-03-01T03:10:41;14.03;;;8.20;;
20721;SDS011;10522;52.198;9.890;2023-03-01T03:13:09;13.10;;;8.47;;
20721;SDS011;10522;52.198;9.890;2023-03-01T03:15:37;17.70;;;8.80;;
20721;SDS011;10522;52.198;9.890;2023-03-01T03:18:05;13.93;;;8.10;;
20721;SDS011;10522;52.198;9.890;2023-03-01T03:20:32;13.00;;;7.80;;
20721;SDS011;10522;52.198;9.890;2023-03-01T03:22:59;14.30;;;8.13;;
20721;SDS011;10522;52.198;9.890;2023-03-01T03:25:25;11.30;;;7.73;;
20721;SDS011;10522;52.198;9.890;2023-03-01T03:27:53;16.63;;;8.17;;
20721;SDS011;10522;52.198;9.890;2023-03-01T03:30:21;13.37;;;7.43;;
20721;SDS011;10522;52.198;9.890;2023-03-01T03:32:52;13.07;;;7.27;;
20721;SDS011;10522;52.198;9.890;2023-03-01T03:37:50;12.27;;;6.90;;
20721;SDS011;10522;52.198;9.890;2023-03-01T03:40:33;10.30;;;6.27;;
20721;SDS011;10522;52.198;9.890;2023-03-01T03:42:59;12.83;;;7.50;;
20721;SDS011;10522;52.198;9.890;2023-03-01T03:45:25;13.43;;;7.07;;
20721;SDS011;10522;52.198;9.890;2023-03-01T03:47:51;16.83;;;8.03;;
20721;SDS011;10522;52.198;9.890;2023-03-01T03:50:17;15.17;;;9.07;;
20721;SDS011;10522;52.198;9.890;2023-03-01T03:52:43;16.83;;;9.53;;
20721;SDS011;10522;52.198;9.890;2023-03-01T03:55:10;12.87;;;7.50;;
20721;SDS011;10522;52.198;9.890;2023-03-01T03:57:38;12.33;;;7.17;;
20721;SDS011;10522;52.198;9.890;2023-03-01T04:00:06;15.20;;;8.43;;
20721;SDS011;10522;52.198;9.890;2023-03-01T04:02:41;14.20;;;8.37;;
20721;SDS011;10522;52.198;9.890;2023-03-01T04:05:07;13.17;;;8.03;;
20721;SDS011;10522;52.198;9.890;2023-03-01T04:07:35;15.87;;;8.17;;
20721;SDS011;10522;52.198;9.890;2023-03-01T04:10:05;12.37;;;7.97;;
20721;SDS011;10522;52.198;9.890;2023-03-01T04:12:36;13.20;;;7.90;;
20721;SDS011;10522;52.198;9.890;2023-03-01T04:15:03;13.27;;;7.80;;
20721;SDS011;10522;52.198;9.890;2023-03-01T04:17:38;15.73;;;8.00;;
20721;SDS011;10522;52.198;9.890;2023-03-01T04:20:09;13.40;;;7.83;;
20721;SDS011;10522;52.198;9.890;2023-03-01T04:22:39;18.30;;;8.27;;
20721;SDS011;10522;52.198;9.890;2023-03-01T04:25:05;11.83;;;7.20;;
20721;SDS011;10522;52.198;9.890;2023-03-01T04:27:35;14.23;;;7.83;;
20721;SDS011;10522;52.198;9.890;2023-03-01T04:30:03;14.97;;;7.80;;
20721;SDS011;10522;52.198;9.890;2023-03-01T04:32:30;14.93;;;8.63;;
20721;SDS011;10522;52.198;9.890;2023-03-01T04:34:55;14.50;;;8.43;;
20721;SDS011;10522;52.198;9.890;2023-03-01T04:37:21;14.83;;;8.00;;
20721;SDS011;10522;52.198;9.890;2023-03-01T04:39:46;14.13;;;8.13;;
20721;SDS011;10522;52.198;9.890;2023-03-01T04:42:12;15.77;;;8.90;;
20721;SDS011;10522;52.198;9.890;2023-03-01T04:44:39;16.67;;;8.60;;
20721;SDS011;10522;52.198;9.890;2023-03-01T04:47:04;15.03;;;8.20;;
20721;SDS011;10522;52.198;9.890;2023-03-01T04:49:30;12.20;;;7.50;;
20721;SDS011;10522;52.198;9.890;2023-03-01T04:51:56;18.00;;;8.80;;
20721;SDS011;10522;52.198;9.890;2023-03-01T04:54:27;13.60;;;7.93;;
20721;SDS011;10522;52.198;9.890;2023-03-01T04:56:53;13.13;;;7.43;;
20721;SDS011;10522;52.198;9.890;2023-03-01T04:59:19;15.07;;;8.47;;
20721;SDS011;10522;52.198;9.890;2023-03-01T05:01:47;13.60;;;8.33;;
20721;SDS011;10522;52.198;9.890;2023-03-01T05:04:13;13.33;;;7.37;;
20721;SDS011;10522;52.198;9.890;2023-03-01T05:06:39;14.13;;;8.83;;
20721;SDS011;10522;52.198;9.890;2023-03-01T05:09:05;15.20;;;8.10;;
20721;SDS011;10522;52.198;9.890;2023-03-01T05:11:31;14.40;;;8.63;;
20721;SDS011;10522;52.198;9.890;2023-03-01T05:14:04;17.33;;;8.60;;
20721;SDS011;10522;52.198;9.890;2023-03-01T05:16:31;12.70;;;7.80;;
20721;SDS011;10522;52.198;9.890;2023-03-01T05:18:57;14.80;;;8.73;;
20721;SDS011;10522;52.198;9.890;2023-03-01T05:21:23;13.83;;;8.00;;
20721;SDS011;10522;52.198;9.890;2023-03-01T05:23:50;15.60;;;8.27;;
20721;SDS011;10522;52.198;9.890;2023-03-01T05:26:16;11.30;;;7.90;;
20721;SDS011;10522;52.198;9.890;2023-03-01T05:28:44;12.43;;;7.63;;
20721;SDS011;10522;52.198;9.890;2023-03-01T05:31:10;12.23;;;8.43;;
20721;SDS011;10522;52.198;9.890;2023-03-01T05:33:40;13.63;;;8.60;;
20721;SDS011;10522;52.198;9.890;2023-03-01T05:36:06;12.80;;;7.60;;
20721;SDS011;10522;52.198;9.890;2023-03-01T05:38:34;13.27;;;7.67;;
20721;SDS011;10522;52.198;9.890;2023-03-01T05:41:00;14.20;;;8.20;;
20721;SDS011;10522;52.198;9.890;2023-03-01T05:43:29;12.90;;;8.00;;
20721;SDS011;10522;52.198;9.890;2023-03-01T05:45:58;11.33;;;7.97;;
20721;SDS011;10522;52.198;9.890;2023-03-01T05:48:24;14.33;;;7.30;;
20721;SDS011;10522;52.198;9.890;2023-03-01T05:50:50;13.43;;;8.47;;
20721;SDS011;10522;52.198;9.890;2023-03-01T05:53:16;14.70;;;7.67;;
20721;SDS011;10522;52.198;9.890;2023-03-01T05:55:46;13.23;;;7.37;;
20721;SDS011;10522;52.198;9.890;2023-03-01T05:58:14;14.07;;;8.07;;
20721;SDS011;10522;52.198;9.890;2023-03-01T06:00:42;19.80;;;9.30;;
20721;SDS011;10522;52.198;9.890;2023-03-01T06:03:10;17.67;;;8.77;;
20721;SDS011;10522;52.198;9.890;2023-03-01T06:05:37;25.67;;;13.83;;
20721;SDS011;10522;52.198;9.890;2023-03-01T06:08:02;23.03;;;11.90;;
20721;SDS011;10522;52.198;9.890;2023-03-01T06:10:28;29.37;;;12.13;;
20721;SDS011;10522;52.198;9.890;2023-03-01T06:12:54;23.20;;;12.80;;
20721;SDS011;10522;52.198;9.890;2023-03-01T06:15:21;26.63;;;13.50;;
20721;SDS011;10522;52.198;9.890;2023-03-01T06:17:47;25.23;;;12.53;;
20721;SDS011;10522;52.198;9.890;2023-03-01T06:20:14;19.93;;;10.67;;
20721;SDS011;10522;52.198;9.890;2023-03-01T06:22:44;21.57;;;10.40;;
20721;SDS011;10522;52.198;9.890;2023-03-01T06:25:11;24.27;;;11.03;;
20721;SDS011;10522;52.198;9.890;2023-03-01T06:27:38;24.90;;;14.60;;
20721;SDS011;10522;52.198;9.890;2023-03-01T06:30:04;19.73;;;10.30;;
20721;SDS011;10522;52.198;9.890;2023-03-01T06:32:31;17.93;;;10.70;;
20721;SDS011;10522;52.198;9.890;2023-03-01T06:34:56;18.90;;;10.73;;
20721;SDS011;10522;52.198;9.890;2023-03-01T06:37:23;16.30;;;9.17;;
20721;SDS011;10522;52.198;9.890;2023-03-01T06:39:49;14.57;;;9.13;;
20721;SDS011;10522;52.198;9.890;2023-03-01T06:42:15;17.73;;;9.93;;
20721;SDS011;10522;52.198;9.890;2023-03-01T06:44:41;17.00;;;9.73;;
20721;SDS011;10522;52.198;9.890;2023-03-01T06:47:07;17.33;;;9.93;;
20721;SDS011;10522;52.198;9.890;2023-03-01T06:49:32;16.60;;;9.90;;
20721;SDS011;10522;52.198;9.890;2023-03-01T06:51:58;13.27;;;8.43;;
20721;SDS011;10522;52.198;9.890;2023-03-01T06:54:23;14.17;;;9.47;;
20721;SDS011;10522;52.198;9.890;2023-03-01T06:56:50;13.73;;;8.83;;
20721;SDS011;10522;52.198;9.890;2023-03-01T06:59:16;17.07;;;9.27;;
20721;SDS011;10522;52.198;9.890;2023-03-01T07:01:46;15.77;;;10.20;;
20721;SDS011;10522;52.198;9.890;2023-03-01T07:04:16;15.37;;;9.10;;
20721;SDS011;10522;52.198;9.890;2023-03-01T07:06:42;14.73;;;9.10;;
20721;SDS011;10522;52.198;9.890;2023-03-01T07:09:07;16.03;;;9.53;;
20721;SDS011;10522;52.198;9.890;2023-03-01T07:11:33;15.63;;;8.33;;
20721;SDS011;10522;52.198;9.890;2023-03-01T07:13:59;15.13;;;8.83;;
20721;SDS011;10522;52.198;9.890;2023-03-01T07:16:25;13.90;;;8.50;;
20721;SDS011;10522;52.198;9.890;2023-03-01T07:18:50;18.23;;;8.13;;
20721;SDS011;10522;52.198;9.890;2023-03-01T07:21:16;18.43;;;8.87;;
20721;SDS011;10522;52.198;9.890;2023-03-01T07:23:42;15.40;;;8.70;;
20721;SDS011;10522;52.198;9.890;2023-03-01T07:26:08;16.87;;;8.90;;
20721;SDS011;10522;52.198;9.890;2023-03-01T07:28:33;18.57;;;8.23;;
20721;SDS011;10522;52.198;9.890;2023-03-01T07:31:04;18.47;;;8.50;;
20721;SDS011;10522;52.198;9.890;2023-03-01T07:33:32;15.87;;;8.83;;
20721;SDS011;10522;52.198;9.890;2023-03-01T07:35:59;13.57;;;8.30;;
20721;SDS011;10522;52.198;9.890;2023-03-01T07:38:26;16.50;;;8.60;;
20721;SDS011;10522;52.198;9.890;2023-03-01T07:40:52;14.83;;;8.10;;
20721;SDS011;10522;52.198;9.890;2023-03-01T07:43:18;16.90;;;9.20;;
20721;SDS011;10522;52.198;9.890;2023-03-01T07:45:45;16.80;;;9.87;;
20721;SDS011;10522;52.198;9.890;2023-03-01T07:48:11;18.00;;;10.17;;
20721;SDS011;10522;52.198;9.890;2023-03-01T07:50:37;18.97;;;10.57;;
20721;SDS011;10522;52.198;9.890;2023-03-01T07:53:02;19.00;;;11.60;;
20721;SDS011;10522;52.198;9.890;2023-03-01T07:55:28;18.30;;;10.27;;
20721;SDS011;10522;52.198;9.890;2023-03-01T07:57:54;23.30;;;10.83;;
20721;SDS011;10522;52.198;9.890;2023-03-01T08:00:19;16.27;;;9.27;;
20721;SDS011;10522;52.198;9.890;2023-03-01T08:02:45;18.00;;;9.87;;
20721;SDS011;10522;52.198;9.890;2023-03-01T08:05:11;21.40;;;9.77;;
20721;SDS011;10522;52.198;9.890;2023-03-01T08:07:37;17.90;;;10.17;;
20721;SDS011;10522;52.198;9.890;2023-03-01T08:10:02;18.33;;;10.43;;
20721;SDS011;10522;52.198;9.890;2023-03-01T08:12:28;17.63;;;11.27;;
20721;SDS011;10522;52.198;9.890;2023-03-01T08:14:54;19.47;;;9.87;;
20721;SDS011;10522;52.198;9.890;2023-03-01T08:17:20;21.53;;;11.57;;
20721;SDS011;10522;52.198;9.890;2023-03-01T08:19:45;18.37;;;10.73;;
20721;SDS011;10522;52.198;9.890;2023-03-01T08:22:11;20.37;;;10.63;;
20721;SDS011;10522;52.198;9.890;2023-03-01T08:24:37;19.63;;;11.90;;
20721;SDS011;10522;52.198;9.890;2023-03-01T08:27:03;19.57;;;11.50;;
20721;SDS011;10522;52.198;9.890;2023-03-01T08:29:32;18.10;;;10.43;;
20721;SDS011;10522;52.198;9.890;2023-03-01T08:31:58;17.03;;;10.10;;
20721;SDS011;10522;52.198;9.890;2023-03-01T08:34:24;16.53;;;10.63;;
20721;SDS011;10522;52.198;9.890;2023-03-01T08:36:50;17.83;;;10.73;;
20721;SDS011;10522;52.198;9.890;2023-03-01T08:39:17;17.83;;;10.63;;
20721;SDS011;10522;52.198;9.890;2023-03-01T08:41:45;20.20;;;11.30;;
20721;SDS011;10522;52.198;9.890;2023-03-01T08:44:12;18.03;;;11.03;;
20721;SDS011;10522;52.198;9.890;2023-03-01T08:46:39;18.60;;;11.23;;
20721;SDS011;10522;52.198;9.890;2023-03-01T08:49:11;18.00;;;11.23;;
20721;SDS011;10522;52.198;9.890;2023-03-01T08:51:42;18.07;;;11.77;;
20721;SDS011;10522;52.198;9.890;2023-03-01T08:54:13;18.47;;;11.40;;
20721;SDS011;10522;52.198;9.890;2023-03-01T08:56:43;22.83;;;11.93;;
20721;SDS011;10522;52.198;9.890;2023-03-01T08:59:13;22.87;;;11.97;;
20721;SDS011;10522;52.198;9.890;2023-03-01T09:01:40;20.73;;;11.70;;
20721;SDS011;10522;52.198;9.890;2023-03-01T09:04:08;19.50;;;11.57;;
20721;SDS011;10522;52.198;9.890;2023-03-01T09:06:35;17.67;;;10.80;;
20721;SDS011;10522;52.198;9.890;2023-03-01T09:09:01;19.63;;;11.20;;
20721;SDS011;10522;52.198;9.890;2023-03-01T09:11:28;16.00;;;10.60;;
20721;SDS011;10522;52.198;9.890;2023-03-01T09:13:54;18.17;;;10.93;;
20721;SDS011;10522;52.198;9.890;2023-03-01T09:16:20;16.73;;;11.10;;
20721;SDS011;10522;52.198;9.890;2023-03-01T09:18:52;19.57;;;10.00;;
20721;SDS011;10522;52.198;9.890;2023-03-01T09:21:19;19.50;;;10.80;;
20721;SDS011;10522;52.198;9.890;2023-03-01T09:23:49;15.57;;;9.77;;
20721;SDS011;10522;52.198;9.890;2023-03-01T09:26:16;16.27;;;10.07;;
20721;SDS011;10522;52.198;9.890;2023-03-01T09:28:44;16.23;;;10.23;;
20721;SDS011;10522;52.198;9.890;2023-03-01T09:31:10;17.00;;;10.57;;
20721;SDS011;10522;52.198;9.890;2023-03-01T09:33:38;17.00;;;9.57;;
20721;SDS011;10522;52.198;9.890;2023-03-01T09:36:05;14.70;;;9.57;;
20721;SDS011;10522;52.198;9.890;2023-03-01T09:38:32;15.73;;;10.00;;
20721;SDS011;10522;52.198;9.890;2023-03-01T09:40:59;19.43;;;9.83;;
20721;SDS011;10522;52.198;9.890;2023-03-01T09:43:37;18.30;;;10.37;;
20721;SDS011;10522;52.198;9.890;2023-03-01T09:46:24;22.13;;;10.20;;
20721;SDS011;10522;52.198;9.890;2023-03-01T09:48:54;26.03;;;11.97;;
20721;SDS011;10522;52.198;9.890;2023-03-01T09:51:40;18.97;;;8.87;;
20721;SDS011;10522;52.198;9.890;2023-03-01T09:54:09;16.63;;;8.83;;
20721;SDS011;10522;52.198;9.890;2023-03-01T09:57:39;13.90;;;8.23;;
20721;SDS011;10522;52.198;9.890;2023-03-01T09:59:43;18.87;;;8.77;;
20721;SDS011;10522;52.198;9.890;2023-03-01T10:05:04;15.70;;;9.27;;
20721;SDS011;10522;52.198;9.890;2023-03-01T10:10:28;14.07;;;8.07;;
20721;SDS011;10522;52.198;9.890;2023-03-01T10:12:58;14.73;;;8.60;;
20721;SDS011;10522;52.198;9.890;2023-03-01T10:15:35;15.40;;;6.93;;
20721;SDS011;10522;52.198;9.890;2023-03-01T10:18:10;14.30;;;8.47;;
20721;SDS011;10522;52.198;9.890;2023-03-01T10:23:08;14.00;;;8.23;;
20721;SDS011;10522;52.198;9.890;2023-03-01T10:31:19;12.30;;;6.50;;
20721;SDS011;10522;52.198;9.890;2023-03-01T10:33:47;14.50;;;7.13;;
20721;SDS011;10522;52.198;9.890;2023-03-01T10:36:16;11.63;;;6.47;;
20721;SDS011;10522;52.198;9.890;2023-03-01T10:38:52;11.87;;;6.60;;
20721;SDS011;10522;52.198;9.890;2023-03-01T10:41:22;16.77;;;7.50;;
20721;SDS011;10522;52.198;9.890;2023-03-01T10:43:50;14.97;;;7.00;;
20721;SDS011;10522;52.198;9.890;2023-03-01T10:46:22;12.37;;;5.90;;
20721;SDS011;10522;52.198;9.890;2023-03-01T10:51:50;13.83;;;6.40;;
20721;SDS011;10522;52.198;9.890;2023-03-01T10:56:49;13.70;;;6.77;;
20721;SDS011;10522;52.198;9.890;2023-03-01T10:59:28;11.87;;;5.80;;
20721;SDS011;10522;52.198;9.890;2023-03-01T11:04:44;12.77;;;6.03;;
20721;SDS011;10522;52.198;9.890;2023-03-01T11:07:25;10.80;;;5.70;;
20721;SDS011;10522;52.198;9.890;2023-03-01T11:09:51;9.37;;;5.50;;
20721;SDS011;10522;52.198;9.890;2023-03-01T11:12:17;14.63;;;6.40;;
20721;SDS011;10522;52.198;9.890;2023-03-01T11:14:47;10.80;;;5.73;;
20721;SDS011;10522;52.198;9.890;2023-03-01T11:22:58;9.50;;;4.70;;
20721;SDS011;10522;52.198;9.890;2023-03-01T11:25:36;9.03;;;5.37;;
20721;SDS011;10522;52.198;9.890;2023-03-01T11:28:05;12.43;;;5.63;;
20721;SDS011;10522;52.198;9.890;2023-03-01T11:36:02;11.97;;;5.80;;
20721;SDS011;10522;52.198;9.890;2023-03-01T11:38:35;21.20;;;7.00;;
20721;SDS011;10522;52.198;9.890;2023-03-01T11:41:23;19.97;;;5.63;;
20721;SDS011;10522;52.198;9.890;2023-03-01T11:43:54;21.77;;;7.23;;
20721;SDS011;10522;52.198;9.890;2023-03-01T11:51:42;10.50;;;5.03;;
20721;SDS011;10522;52.198;9.890;2023-03-01T12:02:46;9.80;;;5.33;;
20721;SDS011;10522;52.198;9.890;2023-03-01T12:18:37;10.17;;;5.63;;
20721;SDS011;10522;52.198;9.890;2023-03-01T12:21:32;10.23;;;5.33;;
20721;SDS011;10522;52.198;9.890;2023-03-01T12:27:05;8.43;;;5.07;;
20721;SDS011;10522;52.198;9.890;2023-03-01T12:38:18;11.07;;;5.30;;
20721;SDS011;10522;52.198;9.890;2023-03-01T12:41:27;10.57;;;4.70;;
20721;SDS011;10522;52.198;9.890;2023-03-01T12:49:19;8.67;;;4.50;;
20721;SDS011;10522;52.198;9.890;2023-03-01T12:51:57;8.77;;;4.53;;
20721;SDS011;10522;52.198;9.890;2023-03-01T12:54:28;9.07;;;4.30;;
20721;SDS011;10522;52.198;9.890;2023-03-01T12:56:57;11.37;;;5.40;;
20721;SDS011;10522;52.198;9.890;2023-03-01T13:02:15;7.23;;;4.77;;
20721;SDS011;10522;52.198;9.890;2023-03-01T13:04:59;10.67;;;5.10;;
20721;SDS011;10522;52.198;9.890;2023-03-01T13:08:29;9.47;;;5.10;;
20721;SDS011;10522;52.198;9.890;2023-03-01T13:11:19;8.43;;;4.43;;
20721;SDS011;10522;52.198;9.890;2023-03-01T13:13:47;9.00;;;4.70;;
20721;SDS011;10522;52.198;9.890;2023-03-01T13:19:08;6.60;;;4.83;;
20721;SDS011;10522;52.198;9.890;2023-03-01T13:21:46;8.53;;;4.10;;
20721;SDS011;10522;52.198;9.890;2023-03-01T13:27:21;6.17;;;3.83;;
20721;SDS011;10522;52.198;9.890;2023-03-01T13:29:54;6.40;;;3.90;;
20721;SDS011;10522;52.198;9.890;2023-03-01T13:34:50;5.73;;;3.53;;
20721;SDS011;10522;52.198;9.890;2023-03-01T13:37:26;7.73;;;3.83;;
20721;SDS011;10522;52.198;9.890;2023-03-01T13:39:55;9.43;;;4.47;;
20721;SDS011;10522;52.198;9.890;2023-03-01T13:42:48;6.37;;;4.40;;
20721;SDS011;10522;52.198;9.890;2023-03-01T13:45:22;6.70;;;3.93;;
20721;SDS011;10522;52.198;9.890;2023-03-01T13:47:58;7.40;;;4.50;;
20721;SDS011;10522;52.198;9.890;2023-03-01T13:50:55;7.27;;;3.67;;
20721;SDS011;10522;52.198;9.890;2023-03-01T13:53:36;7.13;;;4.30;;
20721;SDS011;10522;52.198;9.890;2023-03-01T13:56:27;7.03;;;4.00;;
20721;SDS011;10522;52.198;9.890;2023-03-01T13:58:59;7.57;;;4.03;;
20721;SDS011;10522;52.198;9.890;2023-03-01T14:01:33;9.30;;;4.43;;
20721;SDS011;10522;52.198;9.890;2023-03-01T14:04:01;6.10;;;4.33;;
20721;SDS011;10522;52.198;9.890;2023-03-01T14:06:32;6.77;;;4.20;;
20721;SDS011;10522;52.198;9.890;2023-03-01T14:09:05;7.97;;;3.70;;
20721;SDS011;10522;52.198;9.890;2023-03-01T14:19:21;5.67;;;3.97;;
20721;SDS011;10522;52.198;9.890;2023-03-01T14:27:25;6.97;;;4.00;;
20721;SDS011;10522;52.198;9.890;2023-03-01T14:30:02;10.60;;;4.87;;
20721;SDS011;10522;52.198;9.890;2023-03-01T14:32:57;8.00;;;3.97;;
20721;SDS011;10522;52.198;9.890;2023-03-01T14:35:27;8.53;;;4.20;;
20721;SDS011;10522;52.198;9.890;2023-03-01T14:37:55;6.83;;;3.60;;
20721;SDS011;10522;52.198;9.890;2023-03-01T14:40:23;7.57;;;3.97;;
20721;SDS011;10522;52.198;9.890;2023-03-01T14:42:55;8.10;;;4.00;;
20721;SDS011;10522;52.198;9.890;2023-03-01T14:45:23;9.70;;;4.80;;
20721;SDS011;10522;52.198;9.890;2023-03-01T14:47:51;6.20;;;4.17;;
20721;SDS011;10522;52.198;9.890;2023-03-01T14:50:27;8.53;;;3.93;;
20721;SDS011;10522;52.198;9.890;2023-03-01T14:52:56;7.13;;;3.83;;
20721;SDS011;10522;52.198;9.890;2023-03-01T14:57:56;5.50;;;3.63;;
20721;SDS011;10522;52.198;9.890;2023-03-01T15:00:27;6.43;;;4.00;;
20721;SDS011;10522;52.198;9.890;2023-03-01T15:02:55;5.07;;;3.50;;
20721;SDS011;10522;52.198;9.890;2023-03-01T15:05:26;7.50;;;3.97;;
20721;SDS011;10522;52.198;9.890;2023-03-01T15:07:54;6.47;;;3.67;;
20721;SDS011;10522;52.198;9.890;2023-03-01T15:10:23;6.33;;;3.63;;
20721;SDS011;10522;52.198;9.890;2023-03-01T15:12:54;6.93;;;3.50;;
20721;SDS011;10522;52.198;9.890;2023-03-01T15:15:21;6.13;;;3.60;;
20721;SDS011;10522;52.198;9.890;2023-03-01T15:17:55;4.63;;;3.57;;
20721;SDS011;10522;52.198;9.890;2023-03-01T15:20:23;6.53;;;4.23;;
20721;SDS011;10522;52.198;9.890;2023-03-01T15:22:55;9.87;;;4.20;;
20721;SDS011;10522;52.198;9.890;2023-03-01T15:25:22;7.50;;;4.30;;
20721;SDS011;10522;52.198;9.890;2023-03-01T15:27:50;9.57;;;4.40;;
20721;SDS011;10522;52.198;9.890;2023-03-01T15:30:26;7.20;;;5.10;;
20721;SDS011;10522;52.198;9.890;2023-03-01T15:35:45;6.17;;;3.93;;
20721;SDS011;10522;52.198;9.890;2023-03-01T15:38:26;7.03;;;3.80;;
20721;SDS011;10522;52.198;9.890;2023-03-01T15:40:53;6.93;;;3.73;;
20721;SDS011;10522;52.198;9.890;2023-03-01T15:43:37;22.00;;;13.97;;
20721;SDS011;10522;52.198;9.890;2023-03-01T15:46:05;11.20;;;6.07;;
20721;SDS011;10522;52.198;9.890;2023-03-01T15:48:55;10.53;;;6.47;;
20721;SDS011;10522;52.198;9.890;2023-03-01T15:51:27;7.53;;;4.00;;
20721;SDS011;10522;52.198;9.890;2023-03-01T15:53:55;12.47;;;6.57;;
20721;SDS011;10522;52.198;9.890;2023-03-01T15:56:23;7.20;;;3.77;;
20721;SDS011;10522;52.198;9.890;2023-03-01T15:58:48;5.00;;;3.43;;
20721;SDS011;10522;52.198;9.890;2023-03-01T16:01:14;7.67;;;4.33;;
20721;SDS011;10522;52.198;9.890;2023-03-01T16:03:44;8.63;;;4.40;;
20721;SDS011;10522;52.198;9.890;2023-03-01T16:06:10;8.00;;;4.23;;
20721;SDS011;10522;52.198;9.890;2023-03-01T16:08:37;8.20;;;3.67;;
20721;SDS011;10522;52.198;9.890;2023-03-01T16:11:04;7.67;;;3.63;;
20721;SDS011;10522;52.198;9.890;2023-03-01T16:13:34;5.37;;;3.70;;
20721;SDS011;10522;52.198;9.890;2023-03-01T16:15:59;6.80;;;3.50;;
20721;SDS011;10522;52.198;9.890;2023-03-01T16:18:25;5.70;;;3.17;;
20721;SDS011;10522;52.198;9.890;2023-03-01T16:20:51;6.00;;;3.77;;
20721;SDS011;10522;52.198;9.890;2023-03-01T16:23:17;7.27;;;4.37;;
20721;SDS011;10522;52.198;9.890;2023-03-01T16:25:43;5.53;;;3.53;;
20721;SDS011;10522;52.198;9.890;2023-03-01T16:28:09;9.97;;;4.00;;
20721;SDS011;10522;52.198;9.890;2023-03-01T16:30:35;6.27;;;3.50;;
20721;SDS011;10522;52.198;9.890;2023-03-01T16:33:02;8.17;;;3.67;;
20721;SDS011;10522;52.198;9.890;2023-03-01T16:35:31;5.43;;;3.57;;
20721;SDS011;10522;52.198;9.890;2023-03-01T16:37:57;7.17;;;3.60;;
20721;SDS011;10522;52.198;9.890;2023-03-01T16:40:28;5.47;;;3.57;;
20721;SDS011;10522;52.198;9.890;2023-03-01T16:42:54;6.13;;;3.57;;
20721;SDS011;10522;52.198;9.890;2023-03-01T16:45:27;7.73;;;3.70;;
20721;SDS011;10522;52.198;9.890;2023-03-01T16:47:57;5.33;;;3.43;;
20721;SDS011;10522;52.198;9.890;2023-03-01T16:50:23;5.97;;;4.03;;
20721;SDS011;10522;52.198;9.890;2023-03-01T16:52:49;8.37;;;4.17;;
20721;SDS011;10522;52.198;9.890;2023-03-01T16:55:14;6.93;;;3.83;;
20721;SDS011;10522;52.198;9.890;2023-03-01T16:57:40;7.70;;;3.93;;
20721;SDS011;10522;52.198;9.890;2023-03-01T17:00:06;10.43;;;3.73;;
20721;SDS011;10522;52.198;9.890;2023-03-01T17:02:37;8.77;;;4.10;;